createdAt,value
2019-03-22T00:00:55.468Z,19.66
2019-03-22T00:02:27.070Z,18.91
2019-03-22T00:03:58.699Z,18.86
2019-03-22T00:05:30.640Z,19.54
2019-03-22T00:07:02.206Z,20.34
2019-03-22T00:08:33.837Z,19.18
2019-03-22T00:10:05.545Z,20.29
2019-03-22T00:11:37.152Z,20.67
2019-03-22T00:13:08.872Z,22.58
2019-03-22T00:14:40.367Z,20.87
2019-03-22T00:16:12.081Z,21.27
2019-03-22T00:17:43.759Z,21.72
2019-03-22T00:19:15.345Z,20.88
2019-03-22T00:20:46.927Z,21.50
2019-03-22T00:22:18.657Z,21.75
2019-03-22T00:23:50.428Z,24.14
2019-03-22T00:25:22.013Z,22.13
2019-03-22T00:26:53.630Z,21.85
2019-03-22T00:28:25.230Z,22.05
2019-03-22T00:29:56.843Z,23.43
2019-03-22T00:31:28.458Z,22.36
2019-03-22T00:33:00.090Z,23.68
2019-03-22T00:34:31.690Z,24.00
2019-03-22T00:36:03.320Z,24.31
2019-03-22T00:37:35.094Z,24.13
2019-03-22T00:39:06.762Z,23.78
2019-03-22T00:40:38.366Z,26.49
2019-03-22T00:42:09.997Z,27.29
2019-03-22T00:43:41.582Z,25.94
2019-03-22T00:45:13.747Z,26.95
2019-03-22T00:46:45.367Z,26.33
2019-03-22T00:48:17.145Z,27.13
2019-03-22T00:49:48.753Z,26.44
2019-03-22T00:51:20.363Z,27.75
2019-03-22T00:52:51.941Z,27.82
2019-03-22T00:54:22.077Z,29.51
2019-03-22T00:55:53.687Z,29.36
2019-03-22T00:57:28.748Z,28.89
2019-03-22T00:58:56.975Z,30.29
2019-03-22T01:00:28.626Z,27.16
2019-03-22T01:02:00.220Z,29.35
2019-03-22T01:03:31.884Z,29.63
2019-03-22T01:05:03.637Z,31.05
2019-03-22T01:06:35.367Z,30.80
2019-03-22T01:08:06.976Z,30.62
2019-03-22T01:09:38.654Z,31.72
2019-03-22T01:11:10.306Z,32.58
2019-03-22T01:12:41.936Z,34.77
2019-03-22T01:14:13.547Z,32.18
2019-03-22T01:15:45.147Z,32.08
2019-03-22T01:17:16.775Z,33.81
2019-03-22T01:18:48.400Z,32.80
2019-03-22T01:20:20.173Z,32.87
2019-03-22T01:21:51.861Z,35.42
2019-03-22T01:23:23.397Z,34.62
2019-03-22T01:24:55.097Z,33.57
2019-03-22T01:26:26.763Z,34.35
2019-03-22T01:27:58.380Z,35.34
2019-03-22T01:29:29.963Z,34.63
2019-03-22T01:31:01.635Z,35.77
2019-03-22T01:32:33.329Z,36.59
2019-03-22T01:34:04.866Z,38.99
2019-03-22T01:35:36.462Z,38.28
2019-03-22T01:37:08.082Z,36.64
2019-03-22T01:38:39.700Z,38.73
2019-03-22T01:40:12.159Z,37.61
2019-03-22T01:41:43.798Z,38.34
2019-03-22T01:43:15.379Z,38.28
2019-03-22T01:44:46.994Z,37.79
2019-03-22T01:46:18.582Z,37.79
2019-03-22T01:47:50.212Z,36.97
2019-03-22T01:49:21.794Z,38.19
2019-03-22T01:50:53.533Z,38.92
2019-03-22T01:52:25.117Z,39.39
2019-03-22T01:53:56.745Z,40.55
2019-03-22T01:55:28.329Z,40.99
2019-03-22T01:57:00.031Z,41.53
2019-03-22T01:58:31.776Z,40.85
2019-03-22T02:00:03.385Z,41.14
2019-03-22T02:01:35.051Z,39.19
2019-03-22T02:03:06.644Z,38.26
2019-03-22T02:04:36.795Z,42.16
2019-03-22T02:06:08.385Z,43.64
2019-03-22T02:07:40.005Z,41.87
2019-03-22T02:09:11.644Z,43.15
2019-03-22T02:10:43.210Z,43.48
2019-03-22T02:12:15.086Z,44.06
2019-03-22T02:13:46.710Z,44.14
2019-03-22T02:15:18.743Z,43.57
2019-03-22T02:16:50.335Z,40.09
2019-03-22T02:18:21.945Z,43.49
2019-03-22T02:19:53.554Z,42.83
2019-03-22T02:21:25.177Z,41.52
2019-03-22T02:22:56.807Z,42.50
2019-03-22T02:24:28.387Z,41.77
2019-03-22T02:26:00.030Z,43.83
2019-03-22T02:27:31.657Z,41.86
2019-03-22T02:29:03.259Z,43.78
2019-03-22T02:30:34.860Z,42.50
2019-03-22T02:32:06.534Z,43.52
2019-03-22T02:33:38.158Z,43.56
2019-03-22T02:35:09.916Z,42.50
2019-03-22T02:36:41.502Z,44.63
2019-03-22T02:38:13.101Z,43.63
2019-03-22T02:39:44.869Z,45.31
2019-03-22T02:41:15.785Z,42.26
2019-03-22T02:42:47.420Z,46.84
2019-03-22T02:44:19.037Z,44.69
2019-03-22T02:45:50.646Z,40.51
2019-03-22T02:47:22.272Z,43.39
2019-03-22T02:48:53.969Z,45.14
2019-03-22T02:50:25.540Z,44.34
2019-03-22T02:51:57.184Z,44.91
2019-03-22T02:53:28.770Z,43.31
2019-03-22T02:55:00.653Z,40.78
2019-03-22T02:56:31.511Z,41.37
2019-03-22T02:58:14.203Z,43.32
2019-03-22T02:59:34.511Z,43.84
2019-03-22T03:01:06.094Z,43.70
2019-03-22T03:02:37.731Z,43.36
2019-03-22T03:04:09.360Z,42.89
2019-03-22T03:05:40.947Z,42.44
2019-03-22T03:07:12.574Z,43.15
2019-03-22T03:08:44.143Z,41.20
2019-03-22T03:10:16.494Z,43.66
2019-03-22T03:11:48.066Z,40.95
2019-03-22T03:13:19.795Z,40.81
2019-03-22T03:14:51.429Z,40.34
2019-03-22T03:16:23.199Z,42.21
2019-03-22T03:17:54.788Z,41.85
2019-03-22T03:19:26.420Z,42.05
2019-03-22T03:20:58.031Z,40.92
2019-03-22T03:22:29.721Z,42.39
2019-03-22T03:24:01.314Z,41.85
2019-03-22T03:25:32.952Z,41.31
2019-03-22T03:27:04.643Z,41.25
2019-03-22T03:28:37.462Z,41.09
2019-03-22T03:30:09.039Z,40.88
2019-03-22T03:31:40.865Z,40.14
2019-03-22T03:33:12.444Z,40.40
2019-03-22T03:34:44.132Z,40.75
2019-03-22T03:36:15.827Z,42.98
2019-03-22T03:37:47.458Z,41.53
2019-03-22T03:39:19.044Z,42.10
2019-03-22T03:40:50.646Z,40.88
2019-03-22T03:42:22.529Z,41.40
2019-03-22T03:43:54.139Z,41.19
2019-03-22T03:45:31.758Z,40.92
2019-03-22T03:47:03.480Z,39.16
2019-03-22T03:48:35.080Z,39.08
2019-03-22T03:50:07.934Z,42.37
2019-03-22T03:51:39.559Z,41.10
2019-03-22T03:53:11.296Z,41.74
2019-03-22T03:54:42.882Z,40.96
2019-03-22T03:56:14.461Z,41.37
2019-03-22T03:57:46.100Z,41.32
2019-03-22T03:59:17.735Z,40.98
2019-03-22T04:00:49.303Z,39.64
2019-03-22T04:02:21.011Z,40.74
2019-03-22T04:03:52.572Z,39.79
2019-03-22T04:05:24.190Z,41.78
2019-03-22T04:06:55.863Z,41.52
2019-03-22T04:08:27.523Z,43.16
2019-03-22T04:09:59.164Z,42.06
2019-03-22T04:11:30.809Z,43.52
2019-03-22T04:13:02.540Z,44.38
2019-03-22T04:14:34.121Z,42.61
2019-03-22T04:16:05.694Z,41.62
2019-03-22T04:17:37.283Z,41.34
2019-03-22T04:19:08.922Z,43.21
2019-03-22T04:20:40.613Z,42.92
2019-03-22T04:22:12.214Z,41.74
2019-03-22T04:23:43.805Z,42.22
2019-03-22T04:25:15.449Z,42.58
2019-03-22T04:26:47.049Z,44.07
2019-03-22T04:28:18.669Z,45.74
2019-03-22T04:29:50.232Z,43.79
2019-03-22T04:31:21.912Z,44.17
2019-03-22T04:32:53.536Z,44.37
2019-03-22T04:34:25.165Z,43.05
2019-03-22T04:35:56.741Z,43.54
2019-03-22T04:37:28.333Z,43.74
2019-03-22T04:38:59.966Z,43.95
2019-03-22T04:40:32.236Z,44.90
2019-03-22T04:42:03.895Z,45.50
2019-03-22T04:43:35.473Z,45.20
2019-03-22T04:45:07.773Z,45.87
2019-03-22T04:46:39.378Z,43.57
2019-03-22T04:48:29.016Z,45.57
2019-03-22T04:49:51.116Z,43.05
2019-03-22T04:51:22.759Z,44.83
2019-03-22T04:52:54.378Z,44.71
2019-03-22T04:54:26.035Z,44.22
2019-03-22T04:55:58.738Z,45.49
2019-03-22T04:57:30.395Z,47.26
2019-03-22T04:59:01.989Z,47.97
2019-03-22T05:00:33.643Z,47.81
2019-03-22T05:02:05.263Z,48.21
2019-03-22T05:03:36.895Z,47.21
2019-03-22T05:05:09.041Z,46.82
2019-03-22T05:06:40.917Z,43.92
2019-03-22T05:08:12.525Z,44.54
2019-03-22T05:09:44.219Z,45.75
2019-03-22T05:11:15.959Z,47.60
2019-03-22T05:12:47.562Z,46.92
2019-03-22T05:14:19.472Z,45.94
2019-03-22T05:15:51.083Z,44.66
2019-03-22T05:17:22.708Z,43.46
2019-03-22T05:18:54.303Z,41.60
2019-03-22T05:20:25.932Z,40.92
2019-03-22T05:21:57.667Z,41.36
2019-03-22T05:23:29.291Z,40.33
2019-03-22T05:25:00.934Z,39.99
2019-03-22T05:26:32.517Z,41.33
2019-03-22T05:28:04.277Z,39.53
2019-03-22T05:29:35.865Z,40.52
2019-03-22T05:31:22.454Z,39.18
2019-03-22T05:32:44.285Z,38.03
2019-03-22T05:34:15.894Z,41.44
2019-03-22T05:35:47.517Z,37.57
2019-03-22T05:37:19.198Z,39.00
2019-03-22T05:38:50.797Z,36.85
2019-03-22T05:40:22.455Z,38.26
2019-03-22T05:41:54.038Z,37.09
2019-03-22T05:43:25.816Z,37.36
2019-03-22T05:44:57.426Z,38.37
2019-03-22T05:46:29.055Z,40.56
2019-03-22T05:48:00.672Z,39.31
2019-03-22T05:49:32.246Z,37.07
2019-03-22T05:51:03.832Z,37.40
2019-03-22T05:52:35.512Z,40.00
2019-03-22T05:54:07.186Z,39.25
2019-03-22T05:55:38.807Z,36.10
2019-03-22T05:57:13.533Z,36.01
2019-03-22T05:58:41.557Z,35.94
2019-03-22T06:00:13.143Z,38.27
2019-03-22T06:01:45.465Z,38.32
2019-03-22T06:03:15.955Z,38.10
2019-03-22T06:04:47.539Z,38.59
2019-03-22T06:06:19.193Z,35.93
2019-03-22T06:07:50.769Z,35.76
2019-03-22T06:09:22.450Z,34.16
2019-03-22T06:10:54.054Z,36.87
2019-03-22T06:12:25.682Z,36.71
2019-03-22T06:13:57.283Z,36.72
2019-03-22T06:15:29.239Z,35.35
2019-03-22T06:17:00.870Z,35.85
2019-03-22T06:18:32.490Z,35.01
2019-03-22T06:20:04.104Z,33.70
2019-03-22T06:21:35.758Z,36.48
2019-03-22T06:23:07.366Z,35.47
2019-03-22T06:24:38.988Z,36.77
2019-03-22T06:26:10.903Z,35.63
2019-03-22T06:27:42.531Z,36.50
2019-03-22T06:29:14.160Z,35.16
2019-03-22T06:30:45.783Z,36.87
2019-03-22T06:32:17.418Z,36.71
2019-03-22T06:33:49.032Z,38.74
2019-03-22T06:35:20.657Z,39.10
2019-03-22T06:36:52.621Z,40.19
2019-03-22T06:38:24.396Z,37.31
2019-03-22T06:39:56.097Z,39.85
2019-03-22T06:41:27.827Z,38.83
2019-03-22T06:42:59.391Z,39.55
2019-03-22T06:44:31.032Z,39.54
2019-03-22T06:46:02.662Z,40.24
2019-03-22T06:47:34.288Z,40.50
2019-03-22T06:49:05.878Z,38.11
2019-03-22T06:50:37.474Z,38.48
2019-03-22T06:52:09.179Z,37.50
2019-03-22T06:53:40.798Z,38.96
2019-03-22T06:55:12.412Z,37.20
2019-03-22T06:56:44.004Z,38.22
2019-03-22T06:58:17.179Z,37.81
2019-03-22T06:59:48.813Z,40.61
2019-03-22T07:01:20.391Z,39.95
2019-03-22T07:02:52.044Z,39.31
2019-03-22T07:04:23.764Z,40.01
2019-03-22T07:05:55.350Z,39.87
2019-03-22T07:07:26.947Z,39.42
2019-03-22T07:10:18.788Z,172.84
2019-03-22T07:11:50.336Z,196.79
2019-03-22T07:13:22.143Z,203.81
2019-03-22T07:14:52.203Z,204.09
2019-03-22T07:16:23.743Z,221.79
2019-03-22T07:17:55.330Z,177.79
2019-03-22T07:19:26.866Z,171.53
2019-03-22T07:20:58.448Z,203.61
2019-03-22T07:22:30.290Z,244.87
2019-03-22T07:24:01.900Z,200.60
2019-03-22T07:25:33.430Z,194.57
2019-03-22T07:27:04.994Z,176.06
2019-03-22T07:28:36.674Z,197.22
2019-03-22T07:30:18.029Z,223.13
2019-03-22T07:31:40.126Z,199.45
2019-03-22T07:33:11.654Z,168.82
2019-03-22T07:34:43.194Z,196.81
2019-03-22T07:36:14.907Z,177.11
2019-03-22T07:37:46.426Z,179.88
2019-03-22T07:39:18.063Z,255.29
2019-03-22T07:40:49.583Z,236.63
2019-03-22T07:42:21.149Z,186.88
2019-03-22T07:43:52.674Z,193.23
2019-03-22T07:45:24.196Z,204.66
2019-03-22T07:46:55.830Z,140.29
2019-03-22T07:48:27.342Z,142.12
2019-03-22T07:49:58.942Z,161.09
2019-03-22T07:51:30.519Z,151.26
2019-03-22T07:53:02.216Z,161.31
2019-03-22T07:54:33.790Z,151.39
2019-03-22T07:56:05.858Z,168.23
2019-03-22T07:57:37.429Z,165.77
2019-03-22T07:59:09.988Z,150.66
2019-03-22T08:00:40.169Z,121.46
2019-03-22T08:02:11.691Z,131.73
2019-03-22T08:03:43.223Z,134.00
2019-03-22T08:05:14.852Z,119.68
2019-03-22T08:06:46.437Z,97.12
2019-03-22T08:08:18.347Z,82.48
2019-03-22T08:09:51.233Z,81.82
2019-03-22T08:11:21.025Z,78.61
2019-03-22T08:12:52.596Z,84.80
2019-03-22T08:14:24.307Z,87.08
2019-03-22T08:15:57.600Z,84.16
2019-03-22T08:17:25.398Z,93.10
2019-03-22T08:18:57.322Z,103.74
2019-03-22T08:20:28.916Z,111.45
2019-03-22T08:22:00.440Z,86.19
2019-03-22T08:23:38.020Z,87.51
2019-03-22T08:25:09.545Z,137.16
2019-03-22T08:26:41.250Z,87.49
2019-03-22T08:28:12.706Z,100.39
2019-03-22T08:29:44.333Z,90.29
2019-03-22T08:31:15.857Z,82.59
2019-03-22T08:32:50.232Z,82.35
2019-03-22T08:34:18.595Z,78.24
2019-03-22T08:35:50.145Z,68.80
2019-03-22T08:37:21.744Z,65.96
2019-03-22T08:38:53.254Z,65.44
2019-03-22T08:40:24.819Z,66.61
2019-03-22T08:41:56.334Z,67.17
2019-03-22T08:43:27.849Z,67.22
2019-03-22T08:44:59.738Z,74.08
2019-03-22T08:46:31.300Z,74.87
2019-03-22T08:48:02.909Z,80.89
2019-03-22T08:49:34.484Z,73.42
2019-03-22T08:51:05.914Z,70.94
2019-03-22T08:52:37.516Z,68.56
2019-03-22T08:54:09.084Z,65.78
2019-03-22T08:55:40.948Z,68.77
2019-03-22T08:57:12.482Z,68.12
2019-03-22T08:58:44.020Z,65.65
2019-03-22T09:00:16.839Z,75.41
2019-03-22T09:01:48.377Z,66.81
2019-03-22T09:03:19.976Z,69.50
2019-03-22T09:04:51.595Z,69.25
2019-03-22T09:06:23.471Z,71.19
2019-03-22T09:07:54.973Z,65.07
2019-03-22T09:09:26.645Z,67.59
2019-03-22T09:10:58.197Z,66.07
2019-03-22T09:12:29.722Z,65.97
2019-03-22T09:14:01.339Z,62.27
2019-03-22T09:15:40.975Z,60.82
2019-03-22T09:17:04.011Z,63.42
2019-03-22T09:18:38.834Z,61.83
2019-03-22T09:20:11.007Z,64.23
2019-03-22T09:21:42.523Z,63.03
2019-03-22T09:23:13.993Z,65.23
2019-03-22T09:24:45.650Z,62.28
2019-03-22T09:26:19.922Z,66.11
2019-03-22T09:27:48.321Z,67.69
2019-03-22T09:29:19.904Z,68.39
2019-03-22T09:30:51.498Z,69.06
2019-03-22T09:32:23.123Z,67.52
2019-03-22T09:33:54.697Z,64.96
2019-03-22T09:35:26.182Z,69.67
2019-03-22T09:36:57.715Z,63.94
2019-03-22T09:38:29.249Z,65.06
2019-03-22T09:40:00.875Z,65.03
2019-03-22T09:41:32.436Z,63.18
2019-03-22T09:43:02.436Z,67.00
2019-03-22T09:44:43.181Z,60.30
2019-03-22T09:46:05.150Z,66.28
2019-03-22T09:47:36.626Z,53.69
2019-03-22T09:49:08.213Z,51.90
2019-03-22T09:50:40.080Z,61.00
2019-03-22T09:52:13.214Z,65.53
2019-03-22T09:53:44.759Z,64.84
2019-03-22T09:55:16.340Z,65.44
2019-03-22T09:56:49.558Z,64.93
2019-03-22T09:58:21.214Z,62.80
2019-03-22T09:59:52.890Z,66.78
2019-03-22T10:01:25.897Z,60.95
2019-03-22T10:03:09.101Z,65.79
2019-03-22T10:04:31.843Z,62.65
2019-03-22T10:06:06.144Z,62.11
2019-03-22T10:07:37.756Z,59.79
2019-03-22T10:09:14.802Z,62.89
2019-03-22T10:10:45.007Z,62.32
2019-03-22T10:12:16.861Z,60.96
2019-03-22T10:13:48.551Z,65.18
2019-03-22T10:15:20.047Z,53.62
2019-03-22T10:16:51.745Z,63.07
2019-03-22T10:18:23.288Z,60.80
2019-03-22T10:19:54.808Z,62.15
2019-03-22T10:21:26.435Z,61.52
2019-03-22T10:22:58.196Z,61.16
2019-03-22T10:24:29.744Z,57.60
2019-03-22T10:26:01.222Z,61.72
2019-03-22T10:27:32.809Z,61.21
2019-03-22T10:29:06.780Z,54.64
2019-03-22T10:30:35.607Z,56.98
2019-03-22T10:32:07.209Z,55.83
2019-03-22T10:33:38.789Z,58.69
2019-03-22T10:35:10.907Z,64.67
2019-03-22T10:36:42.355Z,56.42
2019-03-22T10:38:16.429Z,51.47
2019-03-22T10:39:45.055Z,58.78
2019-03-22T10:41:16.588Z,57.74
2019-03-22T10:42:48.174Z,59.68
2019-03-22T10:44:19.703Z,61.79
2019-03-22T10:45:51.251Z,64.23
2019-03-22T10:47:22.786Z,69.46
2019-03-22T10:48:54.296Z,62.69
2019-03-22T10:50:25.850Z,60.45
2019-03-22T10:51:58.306Z,61.56
2019-03-22T10:53:28.552Z,59.35
2019-03-22T10:55:17.239Z,57.47
2019-03-22T10:56:31.872Z,57.42
2019-03-22T10:58:03.506Z,57.77
2019-03-22T10:59:35.214Z,57.29
2019-03-22T11:01:08.225Z,62.08
2019-03-22T11:02:37.941Z,56.21
2019-03-22T11:05:40.642Z,58.60
2019-03-22T11:07:12.254Z,58.53
2019-03-22T11:08:43.906Z,56.17
2019-03-22T11:10:15.863Z,54.89
2019-03-22T11:11:47.464Z,58.12
2019-03-22T11:13:19.295Z,56.66
2019-03-22T11:14:50.834Z,58.12
2019-03-22T11:16:22.401Z,59.05
2019-03-22T11:17:54.525Z,58.14
2019-03-22T11:19:26.077Z,49.64
2019-03-22T11:21:04.730Z,57.57
2019-03-22T11:22:37.267Z,54.38
2019-03-22T11:24:08.871Z,50.39
2019-03-22T11:25:40.529Z,52.98
2019-03-22T11:27:13.707Z,49.02
2019-03-22T11:28:43.447Z,53.07
2019-03-22T11:30:16.484Z,55.62
2019-03-22T11:31:48.046Z,53.08
2019-03-22T11:33:19.575Z,50.69
2019-03-22T11:34:51.238Z,54.21
2019-03-22T11:36:22.603Z,49.57
2019-03-22T11:37:54.180Z,51.95
2019-03-22T11:39:29.014Z,50.61
2019-03-22T11:41:00.542Z,51.06
2019-03-22T11:42:32.168Z,48.61
2019-03-22T11:44:03.724Z,49.58
2019-03-22T11:45:35.466Z,48.59
2019-03-22T11:47:06.995Z,49.84
2019-03-22T11:48:38.498Z,51.13
2019-03-22T11:50:11.097Z,52.55
2019-03-22T11:51:45.827Z,51.12
2019-03-22T11:53:17.409Z,51.33
2019-03-22T11:54:49.039Z,52.23
2019-03-22T11:56:20.564Z,50.68
2019-03-22T11:57:52.131Z,47.94
2019-03-22T11:59:23.703Z,48.75
2019-03-22T12:00:55.326Z,44.73
2019-03-22T12:02:27.038Z,43.46
2019-03-22T12:03:58.485Z,43.49
2019-03-22T12:05:39.851Z,45.09
2019-03-22T12:07:01.134Z,46.99
2019-03-22T12:08:32.652Z,43.86
2019-03-22T12:10:04.266Z,43.89
2019-03-22T12:11:35.813Z,44.53
2019-03-22T12:13:07.395Z,44.23
2019-03-22T12:14:38.850Z,42.35
2019-03-22T12:16:10.400Z,47.62
2019-03-22T12:17:41.984Z,42.86
2019-03-22T12:19:13.561Z,39.05
2019-03-22T12:20:45.127Z,39.51
2019-03-22T12:22:16.710Z,40.18
2019-03-22T12:23:48.227Z,39.16
2019-03-22T12:25:23.384Z,43.62
2019-03-22T12:26:54.928Z,43.66
2019-03-22T12:28:26.509Z,43.05
2019-03-22T12:29:58.041Z,43.39
2019-03-22T12:31:29.617Z,44.95
2019-03-22T12:33:01.148Z,47.67
2019-03-22T12:34:32.701Z,46.95
2019-03-22T12:36:04.234Z,46.08
2019-03-22T12:37:35.834Z,49.91
2019-03-22T12:39:09.345Z,46.75
2019-03-22T12:40:41.005Z,46.56
2019-03-22T12:42:12.494Z,44.83
2019-03-22T12:43:44.102Z,44.80
2019-03-22T12:45:17.362Z,45.51
2019-03-22T12:46:49.309Z,47.72
2019-03-22T12:48:20.031Z,44.97
2019-03-22T12:49:51.540Z,46.16
2019-03-22T12:51:23.116Z,46.75
2019-03-22T12:52:54.634Z,46.21
2019-03-22T12:54:26.218Z,46.85
2019-03-22T12:55:57.787Z,47.31
2019-03-22T12:57:29.454Z,45.83
2019-03-22T12:59:00.991Z,44.80
2019-03-22T13:00:32.530Z,47.30
2019-03-22T13:02:04.162Z,45.73
2019-03-22T13:03:35.696Z,45.52
2019-03-22T13:05:08.306Z,46.56
2019-03-22T13:06:39.880Z,47.11
2019-03-22T13:08:11.463Z,46.58
2019-03-22T13:09:42.946Z,48.28
2019-03-22T13:11:14.470Z,48.08
2019-03-22T13:12:46.079Z,46.90
2019-03-22T13:14:17.621Z,46.46
2019-03-22T13:15:49.289Z,48.62
2019-03-22T13:17:20.944Z,48.85
2019-03-22T13:18:52.452Z,48.01
2019-03-22T13:20:24.090Z,47.40
2019-03-22T13:21:55.784Z,49.38
2019-03-22T13:23:27.330Z,55.28
2019-03-22T13:24:58.872Z,49.38
2019-03-22T13:26:30.403Z,48.15
2019-03-22T13:28:01.945Z,47.37
2019-03-22T13:29:33.499Z,46.43
2019-03-22T13:31:05.095Z,48.02
2019-03-22T13:32:36.781Z,48.93
2019-03-22T13:34:08.311Z,46.90
2019-03-22T13:35:39.867Z,46.53
2019-03-22T13:37:11.400Z,48.05
2019-03-22T13:38:42.954Z,46.06
2019-03-22T13:40:14.512Z,45.28
2019-03-22T13:41:46.116Z,45.29
2019-03-22T13:43:17.673Z,49.56
2019-03-22T13:44:49.227Z,51.74
2019-03-22T13:46:20.856Z,47.21
2019-03-22T13:47:52.370Z,48.14
2019-03-22T13:49:24.083Z,47.35
2019-03-22T13:50:55.758Z,46.86
2019-03-22T13:52:27.268Z,46.67
2019-03-22T13:53:58.791Z,47.12
2019-03-22T13:55:30.286Z,41.79
2019-03-22T13:57:01.834Z,45.32
2019-03-22T13:58:33.365Z,47.38
2019-03-22T14:00:04.956Z,45.30
2019-03-22T14:01:36.467Z,45.18
2019-03-22T14:03:08.019Z,46.43
2019-03-22T14:04:39.592Z,48.12
2019-03-22T14:06:11.151Z,46.32
2019-03-22T14:07:42.646Z,48.78
2019-03-22T14:09:16.460Z,48.82
2019-03-22T14:10:48.174Z,46.09
2019-03-22T14:12:19.811Z,48.03
2019-03-22T14:13:51.350Z,68.94
2019-03-22T14:15:22.906Z,81.19
2019-03-22T14:16:59.624Z,87.75
2019-03-22T14:18:32.539Z,91.11
2019-03-22T14:20:10.945Z,92.68
2019-03-22T14:21:37.783Z,101.11
2019-03-22T14:23:13.937Z,99.45
2019-03-22T14:24:49.199Z,102.07
2019-03-22T14:26:19.442Z,100.13
2019-03-22T14:29:12.220Z,105.25
2019-03-22T14:30:46.541Z,100.89
2019-03-22T14:32:18.120Z,118.86
2019-03-22T14:33:49.673Z,101.62
2019-03-22T14:35:21.332Z,105.56
2019-03-22T14:36:52.959Z,104.00
2019-03-22T14:38:24.490Z,106.74
2019-03-22T14:39:56.150Z,109.11
2019-03-22T14:41:27.748Z,108.58
2019-03-22T14:42:59.254Z,111.87
2019-03-22T14:44:30.817Z,111.67
2019-03-22T14:46:02.431Z,115.17
2019-03-22T14:47:34.012Z,114.81
2019-03-22T14:49:05.536Z,118.22
2019-03-22T14:50:37.162Z,115.41
2019-03-22T14:52:08.692Z,120.02
2019-03-22T14:53:40.354Z,118.16
2019-03-22T14:55:11.901Z,117.61
2019-03-22T14:56:43.496Z,115.39
2019-03-22T14:58:15.035Z,118.15
2019-03-22T14:59:46.553Z,117.64
2019-03-22T15:01:18.127Z,134.32
2019-03-22T15:02:49.778Z,129.86
2019-03-22T15:04:21.403Z,126.09
2019-03-22T15:05:53.263Z,130.54
2019-03-22T15:07:24.932Z,142.01
2019-03-22T15:08:56.435Z,135.02
2019-03-22T15:10:28.016Z,130.54
2019-03-22T15:11:59.615Z,131.92
2019-03-22T15:13:31.163Z,137.43
2019-03-22T15:15:02.673Z,133.64
2019-03-22T15:16:34.177Z,131.94
2019-03-22T15:18:05.782Z,137.83
2019-03-22T15:19:37.331Z,134.06
2019-03-22T15:21:08.890Z,132.51
2019-03-22T15:22:40.586Z,134.62
2019-03-22T15:24:12.114Z,137.73
2019-03-22T15:25:43.632Z,131.08
2019-03-22T15:27:15.187Z,132.03
2019-03-22T15:28:46.722Z,131.57
2019-03-22T15:30:18.259Z,131.32
2019-03-22T15:31:49.787Z,130.77
2019-03-22T15:33:21.473Z,129.71
2019-03-22T15:34:53.042Z,128.33
2019-03-22T15:36:24.628Z,133.62
2019-03-22T15:37:56.205Z,139.06
2019-03-22T15:39:27.864Z,137.21
2019-03-22T15:40:58.827Z,133.27
2019-03-22T15:42:30.366Z,131.43
2019-03-22T15:44:02.081Z,121.65
2019-03-22T15:45:33.580Z,127.54
2019-03-22T15:47:05.064Z,124.39
2019-03-22T15:48:36.576Z,125.00
2019-03-22T15:50:12.198Z,124.38
2019-03-22T15:51:43.740Z,126.12
2019-03-22T15:53:15.382Z,123.58
2019-03-22T15:54:46.832Z,123.81
2019-03-22T15:56:18.336Z,127.58
2019-03-22T15:57:50.019Z,126.32
2019-03-22T15:59:21.400Z,125.04
2019-03-22T16:00:53.107Z,127.04
2019-03-22T16:02:24.452Z,110.19
2019-03-22T16:03:55.990Z,88.33
2019-03-22T16:05:27.510Z,86.49
2019-03-22T16:06:59.018Z,82.48
2019-03-22T16:08:33.128Z,69.21
2019-03-22T16:10:04.660Z,65.29
2019-03-22T16:11:36.205Z,66.52
2019-03-22T16:13:07.710Z,72.28
2019-03-22T16:14:39.372Z,77.59
2019-03-22T16:16:10.853Z,78.87
2019-03-22T16:17:42.381Z,85.07
2019-03-22T16:19:13.931Z,85.71
2019-03-22T16:20:45.462Z,85.81
2019-03-22T16:22:16.969Z,86.51
2019-03-22T16:23:48.464Z,88.80
2019-03-22T16:25:20.121Z,88.88
2019-03-22T16:26:51.693Z,90.93
2019-03-22T16:28:23.250Z,88.03
2019-03-22T16:29:54.792Z,87.75
2019-03-22T16:31:26.347Z,88.30
2019-03-22T16:32:57.867Z,88.27
2019-03-22T16:34:30.843Z,91.42
2019-03-22T16:36:02.625Z,94.88
2019-03-22T16:37:34.237Z,96.77
2019-03-22T16:39:05.870Z,89.85
2019-03-22T16:40:37.367Z,97.63
2019-03-22T16:42:08.904Z,94.83
2019-03-22T16:43:40.450Z,91.29
2019-03-22T16:45:13.258Z,96.56
2019-03-22T16:46:44.770Z,93.54
2019-03-22T16:48:16.292Z,90.57
2019-03-22T16:49:47.889Z,94.62
2019-03-22T16:51:19.491Z,94.21
2019-03-22T16:52:51.371Z,95.40
2019-03-22T16:54:22.964Z,98.11
2019-03-22T16:55:54.743Z,96.00
2019-03-22T16:57:26.293Z,102.80
2019-03-22T16:58:57.755Z,104.10
2019-03-22T17:00:29.290Z,103.69
2019-03-22T17:02:00.832Z,106.66
2019-03-22T17:03:32.344Z,107.75
2019-03-22T17:05:03.893Z,115.71
2019-03-22T17:06:35.609Z,114.88
2019-03-22T17:08:07.173Z,120.47
2019-03-22T17:09:38.702Z,123.40
2019-03-22T17:11:10.241Z,125.59
2019-03-22T17:12:41.896Z,135.38
2019-03-22T17:14:13.451Z,137.04
2019-03-22T17:15:44.930Z,138.36
2019-03-22T17:17:14.986Z,140.90
2019-03-22T17:18:46.505Z,141.96
2019-03-22T17:20:18.029Z,137.62
2019-03-22T17:21:49.596Z,136.67
2019-03-22T17:23:19.646Z,130.12
2019-03-22T17:24:51.226Z,134.63
2019-03-22T17:26:22.714Z,127.55
2019-03-22T17:27:54.243Z,126.75
2019-03-22T17:29:25.810Z,125.62
2019-03-22T17:30:57.305Z,126.98
2019-03-22T17:32:28.816Z,125.56
2019-03-22T17:34:00.460Z,128.32
2019-03-22T17:35:31.885Z,127.07
2019-03-22T17:37:03.448Z,127.76
2019-03-22T17:38:34.968Z,123.74
2019-03-22T17:40:07.216Z,125.37
2019-03-22T17:41:38.706Z,120.59
2019-03-22T17:43:10.222Z,123.69
2019-03-22T17:44:41.734Z,122.77
2019-03-22T17:46:13.266Z,120.03
2019-03-22T17:47:44.856Z,118.61
2019-03-22T17:49:16.382Z,114.88
2019-03-22T17:50:47.888Z,115.88
2019-03-22T17:52:19.406Z,116.16
2019-03-22T17:53:50.956Z,112.45
2019-03-22T17:55:22.583Z,116.21
2019-03-22T17:56:54.130Z,114.57
2019-03-22T17:58:25.661Z,111.66
2019-03-22T17:59:57.183Z,113.93
2019-03-22T18:01:28.743Z,109.90
2019-03-22T18:03:00.285Z,107.38
2019-03-22T18:04:31.785Z,109.83
2019-03-22T18:06:03.262Z,108.71
2019-03-22T18:07:34.876Z,108.48
2019-03-22T18:09:06.435Z,110.20
2019-03-22T18:10:37.928Z,108.31
2019-03-22T18:12:09.462Z,104.80
2019-03-22T18:13:40.976Z,104.61
2019-03-22T18:15:13.284Z,106.24
2019-03-22T18:16:44.822Z,101.62
2019-03-22T18:18:16.385Z,104.46
2019-03-22T18:19:47.894Z,100.21
2019-03-22T18:21:19.516Z,103.83
2019-03-22T18:22:51.021Z,103.26
2019-03-22T18:24:22.526Z,100.28
2019-03-22T18:25:54.093Z,100.59
2019-03-22T18:27:25.687Z,99.56
2019-03-22T18:28:57.299Z,100.95
2019-03-22T18:30:28.789Z,95.86
2019-03-22T18:32:00.276Z,94.89
2019-03-22T18:33:31.788Z,96.58
2019-03-22T18:35:03.353Z,92.87
2019-03-22T18:36:34.867Z,90.59
2019-03-22T18:38:06.601Z,89.38
2019-03-22T18:39:38.114Z,91.05
2019-03-22T18:41:09.645Z,86.22
2019-03-22T18:42:41.175Z,86.24
2019-03-22T18:44:12.696Z,84.56
2019-03-22T18:45:44.278Z,84.06
2019-03-22T18:47:15.837Z,84.92
2019-03-22T18:48:47.387Z,82.99
2019-03-22T18:50:18.926Z,83.12
2019-03-22T18:51:50.513Z,82.80
2019-03-22T18:53:21.994Z,78.53
2019-03-22T18:54:53.523Z,81.66
2019-03-22T18:56:25.016Z,81.14
2019-03-22T18:57:56.551Z,80.50
2019-03-22T18:59:28.097Z,77.64
2019-03-22T19:00:59.612Z,78.54
2019-03-22T19:02:31.117Z,79.10
2019-03-22T19:04:02.664Z,73.67
2019-03-22T19:05:34.172Z,79.02
2019-03-22T19:07:05.711Z,79.64
2019-03-22T19:08:37.268Z,75.28
2019-03-22T19:10:12.785Z,75.82
2019-03-22T19:11:44.336Z,77.25
2019-03-22T19:13:15.926Z,73.20
2019-03-22T19:14:47.461Z,74.87
2019-03-22T19:16:19.050Z,72.87
2019-03-22T19:17:50.593Z,72.27
2019-03-22T19:19:22.078Z,73.08
2019-03-22T19:20:53.748Z,75.76
2019-03-22T19:22:25.310Z,70.15
2019-03-22T19:23:56.870Z,74.05
2019-03-22T19:25:28.387Z,70.48
2019-03-22T19:26:59.891Z,71.13
2019-03-22T19:28:31.397Z,70.32
2019-03-22T19:30:03.011Z,70.77
2019-03-22T19:31:34.497Z,69.60
2019-03-22T19:33:06.016Z,69.19
2019-03-22T19:34:37.596Z,67.87
2019-03-22T19:36:09.137Z,66.85
2019-03-22T19:37:40.651Z,67.75